Time;durP1;ratioP1;P1;durP2;ratioP2;P2;SDS_P1;SDS_P2;PMS_P1;PMS_P2;Temp;Humidity;BMP_temperature;BMP_pressure;BME280_temperature;BME280_humidity;BME280_pressure;Samples;Min_cycle;Max_cycle;Signal;HPM_P1;HPM_P2
2023/07/03 00:00:12;;;;;;;18.40;7.95;;;;;;;;;;4987832;28;20042;-87
2023/07/03 00:02:38;;;;;;;19.80;7.30;;;;;;;;;;5012296;28;20129;-88
2023/07/03 00:05:06;;;;;;;22.15;8.07;;;;;;;;;;4988928;28;20080;-88
2023/07/03 00:07:32;;;;;;;18.08;6.82;;;;;;;;;;4995470;28;20041;-88
2023/07/03 00:09:57;;;;;;;15.00;6.97;;;;;;;;;;4997513;28;20034;-88
2023/07/03 00:12:23;;;;;;;14.95;6.45;;;;;;;;;;4997465;28;20080;-88
2023/07/03 00:14:49;;;;;;;17.92;6.63;;;;;;;;;;4997045;28;20032;-88
2023/07/03 00:17:15;;;;;;;19.42;7.38;;;;;;;;;;4997074;28;20477;-88
2023/07/03 00:19:40;;;;;;;14.55;6.28;;;;;;;;;;4996709;28;20064;-88
2023/07/03 00:22:06;;;;;;;14.85;7.07;;;;;;;;;;5012190;28;20049;-88
2023/07/03 00:24:32;;;;;;;17.42;6.30;;;;;;;;;;4996824;28;20484;-88
2023/07/03 00:26:58;;;;;;;19.67;6.63;;;;;;;;;;4990395;28;20029;-88
2023/07/03 00:29:24;;;;;;;14.60;6.70;;;;;;;;;;4997414;28;20033;-88
2023/07/03 00:31:50;;;;;;;15.65;6.55;;;;;;;;;;4996736;28;20021;-88
2023/07/03 00:34:15;;;;;;;14.57;6.95;;;;;;;;;;5020408;28;20405;-88
2023/07/03 00:36:41;;;;;;;20.05;7.55;;;;;;;;;;5012541;28;20641;-88
2023/07/03 00:39:07;;;;;;;15.20;6.70;;;;;;;;;;4989795;28;20555;-88
2023/07/03 00:41:33;;;;;;;20.20;7.00;;;;;;;;;;4996346;28;20421;-88
2023/07/03 00:43:58;;;;;;;15.63;6.63;;;;;;;;;;4996878;28;20022;-87
2023/07/03 00:46:24;;;;;;;18.27;7.20;;;;;;;;;;5007239;28;20034;-88
2023/07/03 00:48:50;;;;;;;19.00;7.20;;;;;;;;;;5004726;28;20026;-88
2023/07/03 00:51:16;;;;;;;16.02;7.00;;;;;;;;;;4985612;28;20033;-88
2023/07/03 00:53:42;;;;;;;14.85;6.72;;;;;;;;;;4984790;28;20022;-87
2023/07/03 00:56:08;;;;;;;15.77;6.65;;;;;;;;;;4993611;28;20032;-89
2023/07/03 00:58:34;;;;;;;16.60;6.22;;;;;;;;;;5016555;28;20025;-88
2023/07/03 01:01:26;;;;;;;18.85;8.10;;;;;;;;;;4995660;28;20082;-88
2023/07/03 01:03:55;;;;;;;;;;;;;;;;;;5013010;28;20113;-87
2023/07/03 01:06:28;;;;;;;17.20;6.97;;;;;;;;;;4999941;28;19913;-87
2023/07/03 01:08:58;;;;;;;19.83;7.05;;;;;;;;;;4994330;28;20048;-87
2023/07/03 01:11:24;;;;;;;13.25;6.90;;;;;;;;;;4993357;28;20110;-87
2023/07/03 01:13:55;;;;;;;15.30;6.78;;;;;;;;;;5010163;28;20022;-87
2023/07/03 01:16:20;;;;;;;17.33;6.72;;;;;;;;;;5004535;28;20027;-87
2023/07/03 01:18:48;;;;;;;14.43;6.75;;;;;;;;;;5009254;28;20028;-87
2023/07/03 01:21:22;;;;;;;20.20;6.25;;;;;;;;;;4984131;28;20058;-87
2023/07/03 01:23:54;;;;;;;13.90;6.93;;;;;;;;;;5001183;28;20026;-87
2023/07/03 01:26:21;;;;;;;18.23;6.50;;;;;;;;;;5011068;28;20034;-87
2023/07/03 01:28:54;;;;;;;16.98;6.95;;;;;;;;;;4993331;28;20489;-87
2023/07/03 01:31:22;;;;;;;15.05;5.93;;;;;;;;;;5005554;28;20072;-87
2023/07/03 01:33:47;;;;;;;19.85;7.07;;;;;;;;;;4989248;28;20030;-87
2023/07/03 01:36:15;;;;;;;17.90;7.20;;;;;;;;;;4994398;28;20028;-87
2023/07/03 01:38:45;;;;;;;17.08;6.32;;;;;;;;;;5011198;28;20025;-87
2023/07/03 01:41:14;;;;;;;13.02;6.00;;;;;;;;;;5008756;28;20030;-86
2023/07/03 01:43:40;;;;;;;16.60;6.32;;;;;;;;;;4995256;28;20079;-86
2023/07/03 01:46:07;;;;;;;18.38;6.93;;;;;;;;;;4987310;28;20424;-87
2023/07/03 01:48:33;;;;;;;15.02;6.55;;;;;;;;;;5007820;28;20063;-87
2023/07/03 01:51:01;;;;;;;19.83;7.03;;;;;;;;;;4989867;28;20030;-87
2023/07/03 01:53:32;;;;;;;16.08;7.30;;;;;;;;;;4995588;28;20509;-87
2023/07/03 01:56:08;;;;;;;15.20;6.55;;;;;;;;;;4998078;28;20033;-87
2023/07/03 01:58:46;;;;;;;13.40;6.47;;;;;;;;;;5012038;28;20037;-87
2023/07/03 02:01:20;;;;;;;13.23;5.97;;;;;;;;;;5008877;28;20117;-87
2023/07/03 02:03:54;;;;;;;19.50;7.47;;;;;;;;;;4993981;28;20121;-87
2023/07/03 02:06:23;;;;;;;18.35;6.88;;;;;;;;;;5012297;28;20060;-87
2023/07/03 02:08:51;;;;;;;12.65;6.03;;;;;;;;;;4993964;28;20122;-87
2023/07/03 02:11:20;;;;;;;15.20;6.90;;;;;;;;;;5010858;28;20029;-87
2023/07/03 02:13:45;;;;;;;20.20;7.03;;;;;;;;;;4991994;28;20018;-87
2023/07/03 02:16:11;;;;;;;14.65;6.53;;;;;;;;;;5004300;28;20033;-87
2023/07/03 02:18:37;;;;;;;16.02;7.95;;;;;;;;;;4983840;28;20029;-87
2023/07/03 02:21:05;;;;;;;15.13;6.55;;;;;;;;;;5010215;28;20037;-87
2023/07/03 02:23:31;;;;;;;14.27;6.38;;;;;;;;;;4997205;28;20022;-87
2023/07/03 02:25:57;;;;;;;14.77;6.32;;;;;;;;;;4990245;28;20485;-86
2023/07/03 02:28:22;;;;;;;15.65;6.85;;;;;;;;;;5006119;28;20034;-87
2023/07/03 02:30:47;;;;;;;16.58;6.95;;;;;;;;;;4994233;28;20512;-87
2023/07/03 02:33:13;;;;;;;15.23;5.88;;;;;;;;;;4994538;28;20041;-87
2023/07/03 02:35:41;;;;;;;17.65;6.65;;;;;;;;;;5008706;28;20030;-87
2023/07/03 02:38:10;;;;;;;12.43;6.68;;;;;;;;;;4990616;28;20089;-87
2023/07/03 02:40:36;;;;;;;15.68;6.40;;;;;;;;;;5000171;28;20041;-86
2023/07/03 02:43:03;;;;;;;14.60;6.60;;;;;;;;;;4986155;28;20030;-86
2023/07/03 02:45:40;;;;;;;17.30;7.03;;;;;;;;;;5002139;28;20042;-86
2023/07/03 02:48:06;;;;;;;16.60;7.40;;;;;;;;;;4984735;28;20117;-86
2023/07/03 02:50:32;;;;;;;18.83;6.70;;;;;;;;;;4986994;28;20306;-87
2023/07/03 02:52:57;;;;;;;20.08;7.03;;;;;;;;;;5019752;28;20045;-87
2023/07/03 02:55:24;;;;;;;16.30;6.97;;;;;;;;;;5013294;28;20103;-87
2023/07/03 02:57:49;;;;;;;17.73;6.90;;;;;;;;;;4993917;28;20022;-87
2023/07/03 03:00:15;;;;;;;17.60;6.90;;;;;;;;;;5009969;28;20037;-87
2023/07/03 03:02:43;;;;;;;16.25;6.22;;;;;;;;;;4990857;28;20457;-87
2023/07/03 03:05:09;;;;;;;15.48;6.47;;;;;;;;;;5003407;28;20413;-87
2023/07/03 03:07:35;;;;;;;17.98;6.47;;;;;;;;;;5007370;28;20036;-87
2023/07/03 03:10:00;;;;;;;15.60;6.70;;;;;;;;;;5006079;28;20033;-87
2023/07/03 03:12:26;;;;;;;17.83;7.32;;;;;;;;;;4981943;28;20117;-87
2023/07/03 03:14:51;;;;;;;14.95;6.57;;;;;;;;;;4987110;28;20386;-87
2023/07/03 03:17:16;;;;;;;15.00;6.15;;;;;;;;;;4978092;28;20490;-87
2023/07/03 03:19:42;;;;;;;16.10;6.80;;;;;;;;;;5008076;28;20030;-87
2023/07/03 03:22:07;;;;;;;16.77;7.55;;;;;;;;;;5002628;28;20112;-87
2023/07/03 03:24:33;;;;;;;16.50;6.43;;;;;;;;;;4993172;28;20018;-87
2023/07/03 03:27:05;;;;;;;19.50;6.90;;;;;;;;;;5002988;28;20413;-87
2023/07/03 03:29:30;;;;;;;;;;;;;;;;;;5013283;28;20581;-87
2023/07/03 03:31:56;;;;;;;18.90;6.15;;;;;;;;;;5007047;28;19983;-87
2023/07/03 03:34:21;;;;;;;17.08;6.75;;;;;;;;;;5009503;28;20037;-87
2023/07/03 03:36:46;;;;;;;14.57;6.38;;;;;;;;;;5011674;28;20037;-88
2023/07/03 03:39:12;;;;;;;15.30;6.55;;;;;;;;;;5010085;28;20557;-88
2023/07/03 03:41:37;;;;;;;18.50;6.70;;;;;;;;;;4993606;28;20018;-88
2023/07/03 03:54:36;;;;;;;;;;;;;;;;;;;;;
2023/07/03 05:13:11;;;;;;;13.13;6.20;;;;;;;;;;5004907;28;20100;-83
2023/07/03 05:15:37;;;;;;;15.18;5.35;;;;;;;;;;5005942;28;20015;-83
2023/07/03 05:18:05;;;;;;;13.32;5.97;;;;;;;;;;4990418;28;20501;-84
2023/07/03 05:20:30;;;;;;;13.75;5.55;;;;;;;;;;5011509;28;20022;-83
2023/07/03 05:26:24;;;;;;;12.63;6.05;;;;;;;;;;5012588;28;20037;-81
2023/07/03 05:29:47;;;;;;;10.48;5.13;;;;;;;;;;4955449;29;20023;-84
2023/07/03 05:32:10;;;;;;;17.77;6.18;;;;;;;;;;4964421;28;20038;-84
2023/07/03 05:34:38;;;;;;;10.95;5.07;;;;;;;;;;5024452;28;20034;-81
2023/07/03 05:37:05;;;;;;;13.27;5.32;;;;;;;;;;5036665;28;20409;-84
2023/07/03 05:39:44;;;;;;;;;;;;;;;;;;;;;
2023/07/03 05:42:22;;;;;;;15.52;5.93;;;;;;;;;;5032843;28;20052;-84
2023/07/03 05:44:48;;;;;;;15.82;5.93;;;;;;;;;;5031193;28;20037;-84
2023/07/03 05:47:15;;;;;;;11.80;5.45;;;;;;;;;;5020702;28;20029;-83
2023/07/03 05:50:09;;;;;;;13.35;5.03;;;;;;;;;;5018548;28;20021;-83
2023/07/03 05:52:43;;;;;;;11.90;5.75;;;;;;;;;;5010257;28;20097;-82
2023/07/03 05:55:22;;;;;;;14.52;5.60;;;;;;;;;;5026032;28;20028;-83
2023/07/03 05:57:48;;;;;;;12.15;5.75;;;;;;;;;;5029080;23;20079;-80
2023/07/03 06:00:13;;;;;;;11.55;5.85;;;;;;;;;;4974848;28;20433;-79
2023/07/03 06:02:43;;;;;;;15.95;5.38;;;;;;;;;;4976634;28;20033;-79
2023/07/03 06:05:11;;;;;;;13.98;5.88;;;;;;;;;;4976526;28;20036;-79
2023/07/03 06:07:36;;;;;;;12.45;4.95;;;;;;;;;;4973874;28;20054;-77
2023/07/03 06:10:03;;;;;;;15.13;6.22;;;;;;;;;;4969558;28;20019;-77
2023/07/03 06:12:29;;;;;;;12.15;5.55;;;;;;;;;;4967155;28;20110;-77
2023/07/03 06:14:59;;;;;;;12.63;5.75;;;;;;;;;;4957368;28;20465;-77
2023/07/03 06:17:25;;;;;;;13.05;5.82;;;;;;;;;;4968723;28;20026;-77
2023/07/03 06:19:51;;;;;;;15.70;5.80;;;;;;;;;;4964932;28;20042;-77
2023/07/03 06:22:16;;;;;;;12.90;5.93;;;;;;;;;;4973172;28;20026;-77
2023/07/03 06:24:42;;;;;;;13.02;5.90;;;;;;;;;;4964221;28;20131;-78
2023/07/03 06:27:07;;;;;;;14.88;5.38;;;;;;;;;;4967972;28;20235;-77
2023/07/03 06:29:33;;;;;;;13.02;5.65;;;;;;;;;;4968508;28;20117;-78
2023/07/03 06:31:58;;;;;;;14.65;6.07;;;;;;;;;;4969182;28;20601;-79
2023/07/03 06:34:24;;;;;;;17.98;6.07;;;;;;;;;;4975233;28;20035;-79
2023/07/03 06:36:49;;;;;;;15.80;5.57;;;;;;;;;;4974821;28;20358;-79
2023/07/03 06:39:15;;;;;;;14.27;5.40;;;;;;;;;;4968638;28;20105;-79
2023/07/03 06:41:40;;;;;;;16.30;5.60;;;;;;;;;;4973059;28;20425;-79
2023/07/03 06:44:11;;;;;;;13.70;5.43;;;;;;;;;;4975734;28;20018;-79
2023/07/03 06:46:36;;;;;;;11.07;5.60;;;;;;;;;;4976288;28;20023;-77
2023/07/03 06:49:01;;;;;;;10.85;5.30;;;;;;;;;;4976331;28;20042;-78
2023/07/03 06:51:27;;;;;;;10.52;5.05;;;;;;;;;;4972279;28;20042;-78
2023/07/03 06:53:52;;;;;;;12.15;5.03;;;;;;;;;;4975029;28;20030;-78
2023/07/03 06:56:20;;;;;;;11.68;4.95;;;;;;;;;;4978120;28;20078;-78
2023/07/03 06:58:47;;;;;;;14.93;5.80;;;;;;;;;;4977272;28;20035;-79
2023/07/03 07:01:13;;;;;;;12.30;5.72;;;;;;;;;;4973973;28;20138;-79
2023/07/03 07:03:39;;;;;;;13.82;5.35;;;;;;;;;;4976596;28;20087;-79
2023/07/03 07:06:15;;;;;;;16.48;5.63;;;;;;;;;;4975645;28;20019;-79
2023/07/03 07:08:41;;;;;;;9.07;4.38;;;;;;;;;;4966052;28;20027;-79
2023/07/03 07:11:09;;;;;;;14.75;5.38;;;;;;;;;;4968158;28;20034;-78
2023/07/03 07:13:35;;;;;;;14.90;5.40;;;;;;;;;;4970662;28;20084;-79
2023/07/03 07:16:00;;;;;;;11.10;4.88;;;;;;;;;;4964452;28;20126;-78
2023/07/03 07:18:26;;;;;;;13.05;5.03;;;;;;;;;;4965632;28;20046;-78
2023/07/03 07:20:54;;;;;;;11.65;5.20;;;;;;;;;;4969000;28;20031;-79
2023/07/03 07:23:19;;;;;;;13.52;5.88;;;;;;;;;;4968588;28;20027;-78
2023/07/03 07:25:52;;;;;;;13.43;5.35;;;;;;;;;;4970723;28;20030;-79
2023/07/03 07:28:17;;;;;;;14.88;5.53;;;;;;;;;;4970248;28;20070;-79
2023/07/03 07:30:43;;;;;;;13.45;4.70;;;;;;;;;;4966634;28;20058;-78
2023/07/03 07:33:08;;;;;;;13.70;5.50;;;;;;;;;;4970140;28;20389;-78
2023/07/03 07:35:35;;;;;;;11.98;5.47;;;;;;;;;;4969404;28;20489;-79
2023/07/03 07:38:00;;;;;;;12.35;5.28;;;;;;;;;;4969431;28;20025;-77
2023/07/03 07:40:26;;;;;;;10.38;5.25;;;;;;;;;;4968690;28;20300;-78
2023/07/03 07:42:51;;;;;;;11.95;5.70;;;;;;;;;;4968010;28;20225;-78
2023/07/03 07:45:17;;;;;;;11.98;5.07;;;;;;;;;;4968106;28;20023;-78
2023/07/03 07:47:42;;;;;;;9.88;5.30;;;;;;;;;;4971252;28;20440;-79
2023/07/03 07:50:08;;;;;;;9.98;5.00;;;;;;;;;;4968794;28;20034;-79
2023/07/03 07:52:33;;;;;;;16.60;5.82;;;;;;;;;;4971323;28;20105;-79
2023/07/03 07:54:58;;;;;;;10.23;4.90;;;;;;;;;;4970532;28;20027;-78
2023/07/03 07:57:25;;;;;;;13.57;5.93;;;;;;;;;;4970949;28;20343;-77
2023/07/03 07:59:50;;;;;;;14.07;5.38;;;;;;;;;;4969539;28;20035;-78
2023/07/03 08:02:16;;;;;;;13.57;5.30;;;;;;;;;;4970656;28;20019;-77
2023/07/03 08:04:43;;;;;;;9.75;5.47;;;;;;;;;;4969258;28;20082;-78
2023/07/03 08:07:08;;;;;;;12.02;4.80;;;;;;;;;;4969944;28;20054;-79
2023/07/03 08:09:33;;;;;;;20.38;6.30;;;;;;;;;;4967411;28;20485;-79
2023/07/03 08:12:02;;;;;;;15.05;5.75;;;;;;;;;;4972245;28;20453;-78
2023/07/03 08:14:27;;;;;;;11.23;5.57;;;;;;;;;;4964649;28;20397;-79
2023/07/03 08:16:53;;;;;;;14.98;5.05;;;;;;;;;;4971313;28;20027;-78
2023/07/03 08:19:18;;;;;;;11.63;5.28;;;;;;;;;;4971799;28;20109;-78
2023/07/03 08:21:43;;;;;;;9.48;4.53;;;;;;;;;;4974575;28;20031;-79
2023/07/03 08:24:09;;;;;;;13.98;5.90;;;;;;;;;;4962245;28;20030;-78
2023/07/03 08:26:34;;;;;;;9.63;5.25;;;;;;;;;;4956486;28;20365;-78
2023/07/03 08:29:00;;;;;;;16.30;4.93;;;;;;;;;;4973707;28;20559;-78
2023/07/03 08:31:25;;;;;;;13.93;5.00;;;;;;;;;;4975400;28;20027;-78
2023/07/03 08:33:52;;;;;;;13.98;5.18;;;;;;;;;;4966368;28;20094;-78
2023/07/03 08:36:18;;;;;;;13.98;5.00;;;;;;;;;;4978071;28;20417;-79
2023/07/03 08:38:43;;;;;;;15.63;4.93;;;;;;;;;;4967670;28;20087;-79
2023/07/03 08:41:12;;;;;;;12.10;4.97;;;;;;;;;;4977551;28;20037;-78
2023/07/03 08:43:46;;;;;;;15.35;4.50;;;;;;;;;;4977578;28;20027;-78
2023/07/03 08:46:18;;;;;;;13.65;4.57;;;;;;;;;;4971180;28;20031;-78
2023/07/03 08:48:45;;;;;;;15.25;6.65;;;;;;;;;;4965494;28;20416;-78
2023/07/03 08:51:18;;;;;;;9.90;4.22;;;;;;;;;;4970634;28;20030;-79
2023/07/03 08:53:47;;;;;;;11.38;4.93;;;;;;;;;;4976555;28;20031;-79
2023/07/03 08:56:20;;;;;;;12.75;4.57;;;;;;;;;;4975958;28;20057;-77
2023/07/03 08:58:46;;;;;;;11.13;4.38;;;;;;;;;;4966304;28;20495;-77
2023/07/03 09:01:23;;;;;;;14.43;5.45;;;;;;;;;;4959696;28;20559;-77
2023/07/03 09:03:54;;;;;;;15.20;4.38;;;;;;;;;;4973134;28;20035;-77
2023/07/03 09:06:28;;;;;;;14.75;4.90;;;;;;;;;;4974133;28;20030;-78
2023/07/03 09:09:27;;;;;;;14.60;5.68;;;;;;;;;;4973150;28;20454;-78
2023/07/03 09:12:14;;;;;;;13.07;4.45;;;;;;;;;;4956561;28;20035;-78
2023/07/03 09:14:58;;;;;;;12.38;4.93;;;;;;;;;;4974201;28;20113;-79
2023/07/03 09:17:25;;;;;;;12.60;4.22;;;;;;;;;;4966297;28;20442;-77
2023/07/03 09:19:52;;;;;;;9.95;4.15;;;;;;;;;;4974843;28;20394;-77
2023/07/03 09:22:27;;;;;;;10.55;4.22;;;;;;;;;;4979912;28;20034;-77
2023/07/03 09:24:56;;;;;;;11.20;4.85;;;;;;;;;;4967953;28;20536;-78
2023/07/03 09:27:24;;;;;;;13.05;4.43;;;;;;;;;;4969977;28;20683;-78
2023/07/03 09:29:51;;;;;;;10.82;4.20;;;;;;;;;;4968924;28;20081;-79
2023/07/03 09:32:43;;;;;;;12.02;4.28;;;;;;;;;;4973439;28;21953;-78
2023/07/03 09:35:16;;;;;;;11.15;3.85;;;;;;;;;;4972710;28;20500;-78
2023/07/03 09:37:47;;;;;;;17.65;5.07;;;;;;;;;;4970533;28;20085;-79
2023/07/03 09:40:18;;;;;;;10.70;4.20;;;;;;;;;;4971081;28;20486;-77
2023/07/03 09:42:43;;;;;;;12.27;4.20;;;;;;;;;;4969486;28;20031;-80
2023/07/03 09:45:16;;;;;;;10.75;4.40;;;;;;;;;;4976798;28;20228;-77
2023/07/03 09:47:52;;;;;;;9.65;3.90;;;;;;;;;;4975247;28;20022;-78
2023/07/03 09:50:36;;;;;;;9.27;3.50;;;;;;;;;;4975629;28;20018;-78
2023/07/03 09:53:04;;;;;;;13.60;4.28;;;;;;;;;;4973716;28;20046;-78
2023/07/03 09:55:30;;;;;;;10.50;4.00;;;;;;;;;;4974545;28;20022;-78
2023/07/03 09:57:56;;;;;;;6.78;3.75;;;;;;;;;;4970616;28;20030;-77
2023/07/03 10:00:32;;;;;;;9.38;3.63;;;;;;;;;;4973178;28;20158;-80
2023/07/03 10:02:57;;;;;;;8.77;3.53;;;;;;;;;;4972679;28;20061;-78
2023/07/03 10:05:33;;;;;;;11.85;3.70;;;;;;;;;;4976849;28;20019;-78
2023/07/03 10:08:05;;;;;;;10.23;3.55;;;;;;;;;;4965230;28;20030;-79
2023/07/03 10:10:33;;;;;;;9.30;3.17;;;;;;;;;;4965934;28;20555;-78
2023/07/03 10:13:05;;;;;;;9.95;3.90;;;;;;;;;;4974612;28;20045;-78
2023/07/03 10:15:31;;;;;;;;;;;;;;;;;;4975031;28;20015;-78
2023/07/03 10:18:26;;;;;;;9.60;3.42;;;;;;;;;;4972197;28;19994;-79
2023/07/03 10:20:52;;;;;;;6.60;2.92;;;;;;;;;;4957154;28;20023;-79
2023/07/03 10:23:31;;;;;;;8.63;2.60;;;;;;;;;;4959572;28;20152;-78
2023/07/03 10:26:16;;;;;;;8.02;2.65;;;;;;;;;;4975578;28;20116;-78
2023/07/03 10:28:48;;;;;;;7.07;2.78;;;;;;;;;;4973208;28;20662;-78
2023/07/03 10:31:41;;;;;;;5.18;2.35;;;;;;;;;;4976155;28;20029;-77
2023/07/03 10:34:16;;;;;;;4.47;2.17;;;;;;;;;;4968545;28;20153;-78
2023/07/03 10:36:44;;;;;;;6.43;2.42;;;;;;;;;;4977049;28;20102;-78
2023/07/03 10:39:31;;;;;;;10.63;2.88;;;;;;;;;;4975109;28;20505;-78
2023/07/03 10:42:02;;;;;;;6.20;2.28;;;;;;;;;;4990121;28;20030;-77
2023/07/03 10:44:37;;;;;;;6.53;2.10;;;;;;;;;;4980964;28;20031;-78
2023/07/03 10:47:19;;;;;;;12.70;2.58;;;;;;;;;;4968563;28;20022;-78
2023/07/03 10:49:45;;;;;;;6.57;3.15;;;;;;;;;;4975442;28;20034;-79
2023/07/03 10:52:30;;;;;;;7.43;2.72;;;;;;;;;;4966859;28;20054;-78
2023/07/03 10:55:01;;;;;;;7.15;2.67;;;;;;;;;;4957223;28;20660;-78
2023/07/03 10:58:00;;;;;;;6.15;2.40;;;;;;;;;;4966331;28;20457;-78
2023/07/03 11:00:46;;;;;;;10.10;2.47;;;;;;;;;;4970315;28;20034;-79
2023/07/03 11:03:26;;;;;;;7.32;2.80;;;;;;;;;;4966131;28;20453;-80
2023/07/03 11:06:01;;;;;;;6.30;3.00;;;;;;;;;;4977547;28;20456;-82
2023/07/03 11:08:42;;;;;;;5.30;2.65;;;;;;;;;;4976519;28;20027;-79
2023/07/03 11:11:24;;;;;;;8.25;2.90;;;;;;;;;;4975596;28;20238;-78
2023/07/03 11:13:59;;;;;;;6.15;3.30;;;;;;;;;;4971771;28;20030;-79
2023/07/03 11:16:44;;;;;;;9.30;3.22;;;;;;;;;;4972549;28;20393;-78
2023/07/03 11:19:32;;;;;;;11.07;2.90;;;;;;;;;;4970951;28;20529;-78
2023/07/03 11:22:17;;;;;;;7.20;3.08;;;;;;;;;;4971410;28;20026;-78
2023/07/03 11:24:43;;;;;;;7.25;2.78;;;;;;;;;;4972246;28;20022;-79
2023/07/03 11:27:35;;;;;;;7.78;2.90;;;;;;;;;;4971617;28;20073;-79
2023/07/03 11:30:02;;;;;;;5.38;2.90;;;;;;;;;;4971617;28;20058;-79
2023/07/03 11:32:29;;;;;;;10.77;3.22;;;;;;;;;;4968510;28;20035;-79
2023/07/03 11:34:55;;;;;;;8.90;3.00;;;;;;;;;;4966804;28;20069;-79
2023/07/03 11:37:32;;;;;;;6.72;3.05;;;;;;;;;;4972091;28;20042;-79
2023/07/03 11:40:25;;;;;;;8.23;3.28;;;;;;;;;;4971938;28;20073;-79
2023/07/03 11:43:09;;;;;;;8.57;3.05;;;;;;;;;;4965283;28;20023;-79
2023/07/03 11:45:36;;;;;;;9.85;3.22;;;;;;;;;;4968372;28;20122;-79
2023/07/03 11:48:02;;;;;;;7.60;2.50;;;;;;;;;;4966139;28;20090;-78
2023/07/03 11:50:33;;;;;;;15.60;3.22;;;;;;;;;;4969159;28;20022;-79
2023/07/03 11:53:00;;;;;;;6.07;2.70;;;;;;;;;;4969907;28;20238;-78
2023/07/03 11:55:44;;;;;;;9.50;3.25;;;;;;;;;;4983174;28;20548;-79
2023/07/03 11:58:12;;;;;;;6.82;2.90;;;;;;;;;;4993164;23;20042;-85
2023/07/03 12:00:37;;;;;;;7.43;2.33;;;;;;;;;;5018052;28;20037;-85
2023/07/03 12:03:05;;;;;;;10.27;2.88;;;;;;;;;;5022053;28;20018;-85
2023/07/03 12:05:43;;;;;;;5.07;2.60;;;;;;;;;;5016004;28;20017;-85
2023/07/03 12:08:17;;;;;;;6.30;2.63;;;;;;;;;;5018195;28;20030;-84
2023/07/03 12:10:55;;;;;;;7.25;3.38;;;;;;;;;;5002799;28;20029;-84
2023/07/03 12:14:10;;;;;;;9.98;3.10;;;;;;;;;;5001413;28;20030;-84
2023/07/03 12:16:52;;;;;;;6.90;2.63;;;;;;;;;;5004860;28;20023;-85
2023/07/03 12:19:30;;;;;;;9.85;3.58;;;;;;;;;;5006139;28;20457;-84
2023/07/03 12:21:57;;;;;;;10.13;2.72;;;;;;;;;;4997033;28;20030;-85
2023/07/03 12:24:28;;;;;;;7.63;2.80;;;;;;;;;;5002093;28;20053;-85
2023/07/03 12:27:02;;;;;;;;;;;;;;;;;;5006313;28;20023;-85
2023/07/03 12:29:29;;;;;;;7.15;2.95;;;;;;;;;;5005168;28;19953;-85
2023/07/03 12:32:05;;;;;;;3.55;2.35;;;;;;;;;;5001344;28;20133;-85
2023/07/03 12:34:32;;;;;;;6.45;2.53;;;;;;;;;;4999617;28;20191;-87
2023/07/03 12:37:00;;;;;;;5.57;2.70;;;;;;;;;;5000805;28;20360;-86
2023/07/03 12:39:25;;;;;;;7.93;2.53;;;;;;;;;;5000591;28;20026;-86
2023/07/03 12:45:31;;;;;;;4.63;2.07;;;;;;;;;;4993897;28;20065;-86
2023/07/03 12:48:05;;;;;;;6.60;2.30;;;;;;;;;;4991672;28;20031;-86
2023/07/03 12:50:31;;;;;;;8.63;1.95;;;;;;;;;;5016069;28;20025;-86
2023/07/03 12:53:00;;;;;;;5.80;2.10;;;;;;;;;;5015469;28;20042;-86
2023/07/03 12:55:31;;;;;;;3.78;1.83;;;;;;;;;;5008583;28;20018;-86
2023/07/03 12:58:06;;;;;;;5.30;2.30;;;;;;;;;;4998845;28;20030;-86
2023/07/03 13:00:34;;;;;;;4.57;2.08;;;;;;;;;;5006705;28;20654;-86
2023/07/03 13:03:05;;;;;;;5.10;2.33;;;;;;;;;;5001354;28;20030;-86
2023/07/03 13:05:35;;;;;;;6.45;2.78;;;;;;;;;;4999694;28;20385;-86
2023/07/03 13:08:03;;;;;;;4.30;1.52;;;;;;;;;;4998844;28;20249;-85
2023/07/03 13:10:29;;;;;;;5.25;1.80;;;;;;;;;;4997640;28;20018;-85
2023/07/03 13:13:09;;;;;;;2.72;1.60;;;;;;;;;;4998661;28;20052;-86
2023/07/03 13:16:11;;;;;;;3.25;1.60;;;;;;;;;;4996708;28;20030;-86
2023/07/03 13:18:37;;;;;;;;;;;;;;;;;;4995901;28;20033;-86
2023/07/03 13:21:05;;;;;;;4.60;1.83;;;;;;;;;;4997860;28;19910;-86
2023/07/03 13:23:40;;;;;;;2.95;1.70;;;;;;;;;;4992803;28;20107;-86
2023/07/03 13:26:12;;;;;;;2.38;1.38;;;;;;;;;;4992021;28;20353;-86
2023/07/03 13:28:58;;;;;;;3.30;1.05;;;;;;;;;;5009057;28;20080;-85
2023/07/03 13:31:25;;;;;;;3.65;1.60;;;;;;;;;;5018660;28;20010;-86
2023/07/03 13:34:23;;;;;;;3.53;1.48;;;;;;;;;;5017831;28;20018;-86
2023/07/03 13:36:53;;;;;;;2.22;1.30;;;;;;;;;;4946440;28;20034;-86
2023/07/03 13:39:18;;;;;;;2.42;1.30;;;;;;;;;;4998282;28;20181;-87
2023/07/03 13:41:45;;;;;;;1.92;1.10;;;;;;;;;;4999541;28;20631;-85
2023/07/03 13:44:14;;;;;;;4.13;1.48;;;;;;;;;;4998828;28;20128;-86
2023/07/03 13:46:41;;;;;;;3.30;1.10;;;;;;;;;;4996386;28;20034;-85
2023/07/03 13:49:08;;;;;;;3.55;1.70;;;;;;;;;;4989608;28;20026;-85
2023/07/03 13:51:36;;;;;;;5.30;1.35;;;;;;;;;;4998366;28;20026;-86
2023/07/03 13:54:02;;;;;;;3.60;1.27;;;;;;;;;;4999087;28;20042;-86
2023/07/03 13:56:29;;;;;;;4.70;1.23;;;;;;;;;;4999077;28;20018;-87
2023/07/03 13:58:55;;;;;;;3.38;1.58;;;;;;;;;;4998108;28;20412;-85
2023/07/03 14:01:20;;;;;;;2.63;1.30;;;;;;;;;;4998753;28;20489;-86
2023/07/03 14:07:37;;;;;;;;;;;;;;;;;;4987672;28;20109;-87
2023/07/03 14:10:11;;;;;;;3.70;1.58;;;;;;;;;;4998603;28;19920;-85
2023/07/03 14:12:36;;;;;;;2.55;1.40;;;;;;;;;;4995229;28;20022;-85
2023/07/03 14:15:34;;;;;;;3.13;1.48;;;;;;;;;;4996788;28;20053;-85
2023/07/03 14:18:03;;;;;;;3.20;1.40;;;;;;;;;;4993745;28;20096;-86
2023/07/03 14:20:29;;;;;;;3.42;1.67;;;;;;;;;;4997148;28;20498;-85
2023/07/03 14:22:54;;;;;;;3.10;1.45;;;;;;;;;;4995670;28;20117;-86
2023/07/03 14:25:31;;;;;;;2.50;1.40;;;;;;;;;;4995606;28;20109;-85
2023/07/03 14:27:58;;;;;;;2.38;1.50;;;;;;;;;;4997426;28;20053;-85
2023/07/03 14:30:24;;;;;;;2.42;1.27;;;;;;;;;;4996656;28;20034;-86
2023/07/03 14:32:50;;;;;;;4.80;1.48;;;;;;;;;;4999486;28;20534;-86
2023/07/03 14:35:16;;;;;;;4.05;1.33;;;;;;;;;;5000366;28;20041;-86
2023/07/03 14:37:42;;;;;;;2.55;1.10;;;;;;;;;;5000018;28;20112;-86
2023/07/03 14:40:08;;;;;;;2.70;1.20;;;;;;;;;;5000258;28;20046;-86
2023/07/03 14:42:42;;;;;;;3.35;1.30;;;;;;;;;;5017396;28;20006;-86
2023/07/03 14:45:13;;;;;;;2.00;1.25;;;;;;;;;;5007978;28;20014;-85
2023/07/03 14:47:48;;;;;;;4.22;1.48;;;;;;;;;;5002345;28;20022;-85
2023/07/03 14:50:20;;;;;;;2.38;1.05;;;;;;;;;;4999605;28;20032;-86
2023/07/03 14:56:46;;;;;;;1.40;1.00;;;;;;;;;;4989350;28;20041;-86
2023/07/03 14:59:45;;;;;;;2.10;1.10;;;;;;;;;;4992734;28;20053;-86
2023/07/03 15:03:08;;;;;;;2.20;0.90;;;;;;;;;;4997501;28;20033;-86
2023/07/03 15:06:16;;;;;;;3.45;1.20;;;;;;;;;;4953458;28;20153;-86
2023/07/03 15:09:45;;;;;;;3.28;1.17;;;;;;;;;;4870280;29;20031;-85
2023/07/03 15:16:21;;;;;;;2.35;1.00;;;;;;;;;;4910457;29;20100;-86
2023/07/03 15:22:31;;;;;;;4.65;1.20;;;;;;;;;;4915183;29;21265;-85
2023/07/03 15:25:05;;;;;;;1.45;0.85;;;;;;;;;;4897956;29;20044;-86
2023/07/03 15:28:12;;;;;;;2.45;1.10;;;;;;;;;;4920340;29;20068;-85
2023/07/03 15:34:08;;;;;;;3.08;1.45;;;;;;;;;;4923642;29;20086;-86
2023/07/03 15:36:46;;;;;;;5.57;2.53;;;;;;;;;;4901826;29;20020;-86
2023/07/03 15:44:14;;;;;;;;;;;;;;;;;;;;;
2023/07/03 15:51:56;;;;;;;3.05;1.25;;;;;;;;;;4770182;30;20175;-85
2023/07/03 15:54:55;;;;;;;1.13;0.90;;;;;;;;;;4767370;29;20048;-87
2023/07/03 16:01:34;;;;;;;1.10;0.90;;;;;;;;;;4850586;29;20097;-85
2023/07/03 16:04:04;;;;;;;1.35;0.95;;;;;;;;;;4887886;29;20111;-85
2023/07/03 16:06:58;;;;;;;2.70;1.35;;;;;;;;;;4926176;29;20027;-87
2023/07/03 16:09:24;;;;;;;3.20;0.95;;;;;;;;;;5008329;23;20675;-86
2023/07/03 16:11:49;;;;;;;3.17;1.08;;;;;;;;;;5009195;28;20176;-86
2023/07/03 16:14:16;;;;;;;0.98;0.80;;;;;;;;;;5013954;28;20022;-86
2023/07/03 16:16:42;;;;;;;1.83;1.30;;;;;;;;;;5012346;28;20037;-86
2023/07/03 16:19:07;;;;;;;2.10;1.20;;;;;;;;;;5013885;28;20373;-86
2023/07/03 16:21:33;;;;;;;2.08;1.17;;;;;;;;;;4998963;28;20455;-85
2023/07/03 16:28:10;;;;;;;2.88;1.10;;;;;;;;;;4980500;28;20042;-86
2023/07/03 16:30:35;;;;;;;2.75;1.30;;;;;;;;;;4974443;28;20030;-86
2023/07/03 16:33:00;;;;;;;3.03;1.10;;;;;;;;;;4974208;28;20452;-86
2023/07/03 16:35:26;;;;;;;1.95;1.00;;;;;;;;;;4984053;28;20027;-86
2023/07/03 16:37:54;;;;;;;1.38;1.27;;;;;;;;;;4980236;28;20589;-86
2023/07/03 16:40:19;;;;;;;2.25;1.00;;;;;;;;;;4992109;28;20023;-86
2023/07/03 16:42:45;;;;;;;2.90;0.95;;;;;;;;;;4991080;28;20030;-86
2023/07/03 16:45:11;;;;;;;2.13;1.08;;;;;;;;;;4992220;28;20056;-84
2023/07/03 16:47:36;;;;;;;2.15;0.93;;;;;;;;;;4990725;28;20571;-86
2023/07/03 16:50:01;;;;;;;1.80;1.13;;;;;;;;;;4996375;28;20062;-85
2023/07/03 16:52:27;;;;;;;2.47;1.40;;;;;;;;;;4990634;28;20022;-85
2023/07/03 16:54:52;;;;;;;2.78;1.33;;;;;;;;;;4989520;28;20365;-85
2023/07/03 16:57:17;;;;;;;1.90;1.02;;;;;;;;;;4985659;28;20019;-84
2023/07/03 17:00:28;;;;;;;2.10;1.40;;;;;;;;;;4998772;28;20030;-86
2023/07/03 17:02:54;;;;;;;3.28;1.67;;;;;;;;;;4983416;28;20035;-86
2023/07/03 17:05:19;;;;;;;4.60;1.92;;;;;;;;;;4992865;28;20030;-85
2023/07/03 17:07:45;;;;;;;1.85;1.08;;;;;;;;;;4989291;28;20049;-85
2023/07/03 17:10:10;;;;;;;2.95;1.42;;;;;;;;;;4999139;28;20022;-86
2023/07/03 17:12:35;;;;;;;2.58;1.80;;;;;;;;;;5003606;28;20018;-87